^^
Grace C. Lehan Memorial Weather Station Historical Data
Daily Summary for February 17, 2021 Units:  English    Metric   Both
Daily Weekly Monthly Yearly
  High: Low: Average:
Temperature: 45.3 °F 34.2 °F 39.5 °F
Dew Point: 31.3 °F 27.1 °F 29.5 °F
Humidity: 86% 57% 68%
Wind Speed: 7.5mph 0mph 2.5mph
Wind Gust: 26mph - -
Wind- - WSW
Pressure: 29.63 in 29.31 in -
Precipitation: 0.00 in    
 
 
Tabular Data for February 17, 2021
Time Temperature Dew Point Pressure Wind Wind Speed Wind Gust Humidity Rainfall Rate (Hourly) solar
00:04 34.3 °F 30.6 °F 29.31 in WSW 1.2 mph 9 mph 86% 0.00 in 0 W/m2
00:09 34.2 °F 30.3 °F 29.31 in WSW 2.6 mph 11 mph 85.4% 0.00 in 0 W/m2
00:14 34.2 °F 30.2 °F 29.31 in WSW 0.8 mph 11 mph 85% 0.00 in 0 W/m2
00:19 34.2 °F 30.2 °F 29.32 in WSW 2.6 mph 11 mph 85% 0.00 in 0 W/m2
00:24 34.2 °F 30.2 °F 29.32 in WSW 1.9 mph 13 mph 85% 0.00 in 0 W/m2
00:29 34.2 °F 30.2 °F 29.32 in WSW 2.8 mph 13 mph 85% 0.00 in 0 W/m2
00:34 34.3 °F 30.3 °F 29.33 in WSW 2 mph 13 mph 85% 0.00 in 0 W/m2
00:39 34.3 °F 30.3 °F 29.33 in WSW 2.5 mph 9 mph 85% 0.00 in 0 W/m2
00:44 34.3 °F 30.2 °F 29.33 in WSW 2.1 mph 11 mph 84.7% 0.00 in 0 W/m2
00:49 34.3 °F 30 °F 29.34 in WSW 2.7 mph 11 mph 84% 0.00 in 0 W/m2
00:54 34.4 °F 30.1 °F 29.34 in WSW 2.8 mph 11 mph 84% 0.00 in 0 W/m2
00:59 34.4 °F 30.1 °F 29.34 in SW 2.2 mph 12 mph 84% 0.00 in 0 W/m2
01:03 34.4 °F 30.1 °F 29.34 in WSW 1.9 mph 12 mph 84% 0.00 in 0 W/m2
01:09 34.4 °F 30 °F 29.34 in WSW 1.1 mph 7 mph 83.9% 0.00 in 0 W/m2
01:14 34.4 °F 29.8 °F 29.34 in WSW 3 mph 10 mph 83% 0.00 in 0 W/m2
01:19 34.4 °F 29.8 °F 29.35 in SW 1.4 mph 10 mph 83% 0.00 in 0 W/m2
01:24 34.4 °F 29.8 °F 29.35 in WSW 2.3 mph 10 mph 83% 0.00 in 0 W/m2
01:29 34.4 °F 29.8 °F 29.35 in WSW 2.9 mph 10 mph 83% 0.00 in 0 W/m2
01:34 34.5 °F 29.8 °F 29.36 in SW 2.9 mph 13 mph 82.7% 0.00 in 0 W/m2
01:39 34.6 °F 29.6 °F 29.36 in SW 2.6 mph 13 mph 82% 0.00 in 0 W/m2
01:44 34.6 °F 29.7 °F 29.36 in SW 2.5 mph 13 mph 82% 0.00 in 0 W/m2
01:49 34.6 °F 29.7 °F 29.36 in SW 1.7 mph 13 mph 82% 0.00 in 0 W/m2
01:54 34.6 °F 29.7 °F 29.36 in WSW 1.4 mph 13 mph 82% 0.00 in 0 W/m2
01:59 34.7 °F 29.7 °F 29.37 in SW 2.4 mph 13 mph 81.9% 0.00 in 0 W/m2
02:04 34.7 °F 29.7 °F 29.37 in WSW 3.3 mph 13 mph 81.8% 0.00 in 0 W/m2
02:09 34.8 °F 29.6 °F 29.37 in SW 2 mph 12 mph 81% 0.00 in 0 W/m2
02:14 34.9 °F 29.6 °F 29.38 in WSW 1.4 mph 12 mph 81% 0.00 in 0 W/m2
02:19 34.9 °F 29.5 °F 29.38 in SW 1.9 mph 12 mph 80.6% 0.00 in 0 W/m2
02:24 34.9 °F 29.4 °F 29.38 in WSW 0.6 mph 12 mph 80% 0.00 in 0 W/m2
02:29 34.9 °F 29.4 °F 29.38 in WSW 0.2 mph 12 mph 80% 0.00 in 0 W/m2
02:34 34.9 °F 29.3 °F 29.38 in WSW 1.3 mph 16 mph 80% 0.00 in 0 W/m2
02:39 34.8 °F 29.3 °F 29.38 in WSW 1.3 mph 16 mph 80% 0.00 in 0 W/m2
02:44 34.8 °F 29.3 °F 29.38 in WSW 1.2 mph 16 mph 80% 0.00 in 0 W/m2
02:49 34.8 °F 29.3 °F 29.38 in SW 2.2 mph 16 mph 80% 0.00 in 0 W/m2
02:54 34.8 °F 29.3 °F 29.38 in SW 1.3 mph 16 mph 80% 0.00 in 0 W/m2
02:59 34.9 °F 29.4 °F 29.38 in WSW 2.1 mph 16 mph 80% 0.00 in 0 W/m2
03:04 34.9 °F 29.4 °F 29.39 in SW 1.5 mph 16 mph 80% 0.00 in 0 W/m2
03:09 34.9 °F 29.4 °F 29.39 in SW 0.7 mph 7 mph 80% 0.00 in 0 W/m2
03:14 35 °F 29.3 °F 29.39 in WSW 1.8 mph 13 mph 79.6% 0.00 in 0 W/m2
03:19 35 °F 29.2 °F 29.39 in WSW 2.2 mph 13 mph 79% 0.00 in 0 W/m2
03:24 35.1 °F 29.3 °F 29.39 in SW 2.3 mph 13 mph 79% 0.00 in 0 W/m2
03:29 35.2 °F 29.4 °F 29.39 in SW 2.5 mph 14 mph 79% 0.00 in 0 W/m2
03:34 35.3 °F 29.4 °F 29.39 in SW 2.7 mph 14 mph 78.6% 0.00 in 0 W/m2
03:39 35.4 °F 29.3 °F 29.38 in WSW 2.6 mph 14 mph 78% 0.00 in 0 W/m2
03:44 35.5 °F 29.3 °F 29.39 in WSW 1.1 mph 14 mph 78% 0.00 in 0 W/m2
03:49 35.5 °F 29.3 °F 29.39 in SW 2.1 mph 14 mph 78% 0.00 in 0 W/m2
03:54 35.5 °F 29.3 °F 29.39 in SW 2.8 mph 14 mph 77.9% 0.00 in 0 W/m2
03:59 35.5 °F 29 °F 29.39 in SW 3.2 mph 14 mph 77% 0.00 in 0 W/m2
04:00 35.5 °F 29 °F 29.39 in Calm   14 mph 77% 0.00 in 0 W/m2
04:09 35.5 °F 29 °F 29.40 in SW 3.4 mph 12 mph 77% 0.00 in 0 W/m2
04:14 35.6 °F 29.1 °F 29.40 in WSW 3.5 mph 16 mph 77% 0.00 in 0 W/m2
04:19 35.7 °F 29.2 °F 29.40 in SW 1.9 mph 16 mph 77% 0.00 in 0 W/m2
04:24 35.7 °F 29.2 °F 29.40 in SW 4.6 mph 16 mph 77% 0.00 in 0 W/m2
04:29 35.7 °F 29 °F 29.40 in SW 1.9 mph 16 mph 76.3% 0.00 in 0 W/m2
04:34 35.7 °F 28.9 °F 29.40 in WSW 3.5 mph 16 mph 76% 0.00 in 0 W/m2
04:39 35.7 °F 28.9 °F 29.41 in SW 4.7 mph 15 mph 76% 0.00 in 0 W/m2
04:44 35.7 °F 28.9 °F 29.41 in SW 2.8 mph 15 mph 76% 0.00 in 0 W/m2
04:49 35.7 °F 28.9 °F 29.41 in SW 3.8 mph 15 mph 76% 0.00 in 0 W/m2
04:54 35.7 °F 28.9 °F 29.41 in SW 2.6 mph 15 mph 76% 0.00 in 0 W/m2
04:59 35.7 °F 28.9 °F 29.41 in SW 3.8 mph 15 mph 76% 0.00 in 0 W/m2
05:04 35.7 °F 29.1 °F 29.42 in SW 1.7 mph 15 mph 76.6% 0.00 in 0 W/m2
05:09 35.6 °F 29 °F 29.42 in SW 3.3 mph 14 mph 76.7% 0.00 in 0 W/m2
05:14 35.6 °F 29 °F 29.42 in SW 3.2 mph 14 mph 76.6% 0.00 in 0 W/m2
05:19 35.6 °F 28.8 °F 29.42 in SW 4.8 mph 14 mph 76% 0.00 in 0 W/m2
05:24 35.6 °F 28.8 °F 29.42 in SW 1.3 mph 14 mph 76% 0.00 in 0 W/m2
05:29 35.6 °F 28.8 °F 29.42 in SW 2 mph 14 mph 76% 0.00 in 0 W/m2
05:34 35.6 °F 28.8 °F 29.42 in SW 2.9 mph 14 mph 76% 0.00 in 0 W/m2
05:39 35.6 °F 28.7 °F 29.42 in SW 3.9 mph 12 mph 75.7% 0.00 in 0 W/m2
05:44 35.6 °F 28.5 °F 29.42 in WSW 3.4 mph 12 mph 75% 0.00 in 0 W/m2
05:49 35.6 °F 28.5 °F 29.42 in SW 2.8 mph 12 mph 75% 0.00 in 0 W/m2
05:54 35.6 °F 28.4 °F 29.42 in SW 3.1 mph 12 mph 74.8% 0.00 in 0 W/m2
05:59 35.6 °F 28.1 °F 29.42 in SW 4 mph 12 mph 74% 0.00 in 0 W/m2
06:04 35.6 °F 28.2 °F 29.43 in SW 2.7 mph 13 mph 74% 0.00 in 0 W/m2
06:09 35.7 °F 28 °F 29.43 in SW 1.4 mph 13 mph 73.5% 0.00 in 0 W/m2
06:14 35.6 °F 28.1 °F 29.43 in WSW 3.7 mph 13 mph 73.7% 0.00 in 0 W/m2
06:19 35.6 °F 27.9 °F 29.43 in SW 4.3 mph 13 mph 73.1% 0.00 in 0 W/m2
06:24 35.6 °F 27.8 °F 29.43 in WSW 1.5 mph 13 mph 73% 0.00 in 0 W/m2
06:29 35.6 °F 27.8 °F 29.44 in SW 3.7 mph 13 mph 73% 0.00 in 0 W/m2
06:34 35.6 °F 27.8 °F 29.44 in WSW 3.7 mph 13 mph 73% 0.00 in 0 W/m2
06:39 35.6 °F 27.8 °F 29.44 in SW 3.7 mph 15 mph 73% 0.00 in 0 W/m2
06:44 35.6 °F 27.8 °F 29.44 in WSW 3.1 mph 15 mph 72.9% 0.00 in 0 W/m2
06:49 35.6 °F 27.5 °F 29.44 in SW 3.6 mph 18 mph 72% 0.00 in 0 W/m2
06:54 35.6 °F 27.5 °F 29.44 in SW 3.5 mph 18 mph 72% 0.00 in 0 W/m2
06:59 35.7 °F 27.4 °F 29.45 in SW 3.6 mph 18 mph 71.4% 0.00 in 0 W/m2
07:04 35.7 °F 27.5 °F 29.45 in SW 2.3 mph 18 mph 71.6% 0.00 in 0 W/m2
07:09 35.7 °F 27.2 °F 29.45 in SW 3.7 mph 12 mph 71% 0.00 in 0 W/m2
07:14 35.8 °F 27.3 °F 29.45 in SW 3.7 mph 12 mph 71% 0.00 in 0 W/m2
07:19 35.8 °F 27.1 °F 29.45 in SW 2.8 mph 12 mph 70.2% 0.00 in 7 W/m2
07:24 35.8 °F 27.1 °F 29.45 in SW 2.2 mph 12 mph 70.4% 0.00 in 9 W/m2
07:29 35.9 °F 27.1 °F 29.45 in SW 3.6 mph 12 mph 70% 0.00 in 11 W/m2
07:34 36 °F 27.1 °F 29.46 in WSW 2.7 mph 14 mph 69.9% 0.00 in 14 W/m2
07:39 36 °F 27.2 °F 29.47 in SW 2.8 mph 14 mph 70% 0.00 in 16 W/m2
07:44 36 °F 27.2 °F 29.47 in SW 2.5 mph 14 mph 70% 0.00 in 19 W/m2
07:49 36 °F 27.2 °F 29.47 in SW 1.2 mph 14 mph 70% 0.00 in 37 W/m2
07:54 36.1 °F 27.3 °F 29.47 in SW 3.5 mph 14 mph 69.8% 0.00 in 42 W/m2
07:59 36.4 °F 27.2 °F 29.47 in SW 1.9 mph 14 mph 69.1% 0.00 in 39 W/m2
08:00 36.5 °F 27.3 °F 29.46 in SW 2 mph 14 mph 69% 0.00 in 30 W/m2
08:09 37 °F 27.2 °F 29.46 in SW 3.8 mph 15 mph 67.6% 0.00 in 76 W/m2
08:14 37.3 °F 27.3 °F 29.46 in SW 1.7 mph 15 mph 67% 0.00 in 47 W/m2
08:19 37.5 °F 27.3 °F 29.46 in SW 4 mph 15 mph 66.3% 0.00 in 79 W/m2
08:24 37.7 °F 27.2 °F 29.46 in SW 4.9 mph 16 mph 65.3% 0.00 in 123 W/m2
08:29 38 °F 27.3 °F 29.46 in SW 4.9 mph 18 mph 65% 0.00 in 135 W/m2
08:34 38.3 °F 27.4 °F 29.46 in SW 5.7 mph 18 mph 64.4% 0.00 in 111 W/m2
08:39 38.5 °F 27.6 °F 29.47 in SW 3.2 mph 15 mph 64.6% 0.00 in 104 W/m2
08:44 38.5 °F 27.6 °F 29.47 in SW 3.3 mph 15 mph 64.7% 0.00 in 105 W/m2
08:49 38.6 °F 27.5 °F 29.47 in SW 2.9 mph 15 mph 64.1% 0.00 in 130 W/m2
08:54 38.8 °F 27.7 °F 29.48 in SW 4 mph 15 mph 64.1% 0.00 in 146 W/m2
08:59 39.1 °F 27.8 °F 29.48 in SW 2.3 mph 15 mph 63.7% 0.00 in 171 W/m2
09:04 39.4 °F 27.8 °F 29.49 in WSW 2.7 mph 15 mph 62.9% 0.00 in 179 W/m2
09:09 39.6 °F 27.7 °F 29.48 in WSW 2 mph 12 mph 62.2% 0.00 in 46 W/m2
09:14 39.6 °F 27.6 °F 29.48 in WSW 4.7 mph 13 mph 61.8% 0.00 in 162 W/m2
09:19 39.6 °F 27.4 °F 29.49 in SW 4.8 mph 14 mph 61.2% 0.00 in 160 W/m2
09:24 39.7 °F 27.6 °F 29.49 in SW 3.5 mph 15 mph 61.6% 0.00 in 160 W/m2
09:29 39.8 °F 27.8 °F 29.49 in WSW 2.9 mph 15 mph 61.9% 0.00 in 183 W/m2
09:34 40 °F 27.9 °F 29.49 in WSW 3.6 mph 15 mph 61.7% 0.00 in 160 W/m2
09:39 40 °F 27.7 °F 29.49 in WSW 5.7 mph 14 mph 61% 0.00 in 128 W/m2
09:44 40 °F 27.7 °F 29.49 in WSW 3.1 mph 14 mph 61.1% 0.00 in 121 W/m2
09:49 40.1 °F 27.9 °F 29.49 in WSW 2.2 mph 14 mph 61.3% 0.00 in 120 W/m2
09:54 40.3 °F 28.5 °F 29.49 in WSW 2.2 mph 14 mph 62.3% 0.00 in 95 W/m2
09:59 40.4 °F 28 °F 29.50 in WSW 2.9 mph 18 mph 60.8% 0.00 in 95 W/m2
10:04 40.5 °F 27.8 °F 29.50 in WSW 5.3 mph 18 mph 60.3% 0.00 in 97 W/m2
10:09 40.5 °F 27.8 °F 29.49 in WSW 4.2 mph 17 mph 60.2% 0.00 in 114 W/m2
10:13 40.6 °F 28.2 °F 29.49 in WSW 4.2 mph 24 mph 61% 0.00 in 197 W/m2
10:19 40.7 °F 28 °F 29.49 in WSW 6.4 mph 24 mph 60.2% 0.00 in 181 W/m2
10:24 41.1 °F 28.6 °F 29.48 in WSW 4.6 mph 24 mph 60.7% 0.00 in 253 W/m2
10:29 41.5 °F 28.8 °F 29.49 in SW 4.3 mph 24 mph 60.5% 0.00 in 251 W/m2
10:34 41.9 °F 29.2 °F 29.49 in SW 5.5 mph 24 mph 60.3% 0.00 in 360 W/m2
10:39 42.3 °F 29.2 °F 29.50 in SW 5.9 mph 26 mph 59.6% 0.00 in 425 W/m2
10:44 42.6 °F 29.7 °F 29.49 in SW 2.5 mph 26 mph 59.9% 0.00 in 452 W/m2
10:49 43.1 °F 29.9 °F 29.50 in West 5.9 mph 26 mph 59.4% 0.00 in 452 W/m2
10:54 43.5 °F 30.2 °F 29.50 in SW 6 mph 26 mph 59.1% 0.00 in 452 W/m2
10:59 43.7 °F 29.9 °F 29.49 in SW 7.5 mph 26 mph 57.8% 0.00 in 260 W/m2
11:04 43.7 °F 29.9 °F 29.49 in SW 5.7 mph 26 mph 58% 0.00 in 272 W/m2
11:09 43.6 °F 29.8 °F 29.49 in WSW 4.8 mph 21 mph 57.8% 0.00 in 272 W/m2
11:14 43.6 °F 29.8 °F 29.49 in WSW 5.5 mph 21 mph 58.1% 0.00 in 257 W/m2
11:19 43.6 °F 29.8 °F 29.49 in SW 5.9 mph 21 mph 57.9% 0.00 in 250 W/m2
11:24 43.6 °F 29.6 °F 29.49 in SW 5.8 mph 21 mph 57.5% 0.00 in 325 W/m2
11:29 43.7 °F 30 °F 29.49 in WSW 2.7 mph 21 mph 58.2% 0.00 in 207 W/m2
11:34 43.5 °F 29.9 °F 29.49 in SW 4.5 mph 21 mph 58.4% 0.00 in 174 W/m2
11:39 43.3 °F 29.4 °F 29.49 in WSW 3.1 mph 21 mph 57.8% 0.00 in 253 W/m2
11:44 43 °F 29.3 °F 29.50 in West 2.7 mph 21 mph 58% 0.00 in 285 W/m2
11:48 43.1 °F 29.7 °F 29.50 in WSW 6.5 mph 21 mph 58.8% 0.00 in 520 W/m2
11:54 43.3 °F 29.5 °F 29.49 in SW 4.7 mph 21 mph 58% 0.00 in 149 W/m2
11:59 43.1 °F 29.3 °F 29.49 in WSW 5.1 mph 21 mph 57.7% 0.00 in 179 W/m2
12:00 43 °F 28.8 °F 29.49 in WSW 3 mph 21 mph 57% 0.00 in 179 W/m2
12:09 42.6 °F 29 °F 29.49 in WSW 2.9 mph 10 mph 58.3% 0.00 in 144 W/m2
12:14 42.4 °F 29.1 °F 29.49 in SW 4 mph 11 mph 59% 0.00 in 95 W/m2
12:19 42.1 °F 28.9 °F 29.49 in WSW 4.3 mph 16 mph 59% 0.00 in 93 W/m2
12:24 42 °F 29 °F 29.48 in SW 5.1 mph 17 mph 59.7% 0.00 in 292 W/m2
12:29 42.1 °F 29.1 °F 29.48 in WSW 5.1 mph 17 mph 59.7% 0.00 in 178 W/m2
12:34 42.3 °F 29.4 °F 29.49 in SW 4.9 mph 17 mph 59.9% 0.00 in 381 W/m2
12:39 42.4 °F 29.3 °F 29.49 in WSW 5.8 mph 15 mph 59.5% 0.00 in 381 W/m2
12:44 42.5 °F 29.4 °F 29.49 in West 2.5 mph 17 mph 59.6% 0.00 in 109 W/m2
12:48 42.6 °F 29.7 °F 29.49 in SW 2.2 mph 18 mph 60% 0.00 in 127 W/m2
12:54 42.5 °F 29.5 °F 29.49 in West 2.6 mph 18 mph 59.6% 0.00 in 146 W/m2
12:59 42.4 °F 29.3 °F 29.49 in SW 2.4 mph 18 mph 59.6% 0.00 in 139 W/m2
13:04 42.3 °F 29.3 °F 29.49 in West 4.1 mph 18 mph 59.9% 0.00 in 128 W/m2
13:09 42.2 °F 29.3 °F 29.49 in WSW 4.9 mph 17 mph 60% 0.00 in 120 W/m2
13:14 42.1 °F 29.5 °F 29.49 in West 4.4 mph 17 mph 60.5% 0.00 in 151 W/m2
13:19 42.4 °F 29.8 °F 29.49 in WSW 1.9 mph 17 mph 60.7% 0.00 in 320 W/m2
13:24 42.7 °F 29.9 °F 29.49 in West 2.9 mph 17 mph 60.2% 0.00 in 439 W/m2
13:29 43.1 °F 30 °F 29.49 in WSW 4.8 mph 24 mph 59.8% 0.00 in 364 W/m2
13:34 43.5 °F 30.2 °F 29.49 in WSW 4.2 mph 24 mph 59.2% 0.00 in 431 W/m2
13:39 44.1 °F 30 °F 29.50 in SW 6.1 mph 16 mph 57.4% 0.00 in 297 W/m2
13:44 44.2 °F 30.4 °F 29.50 in West 1.6 mph 16 mph 57.9% 0.00 in 330 W/m2
13:49 44.5 °F 30.9 °F 29.50 in SW 2 mph 16 mph 58.5% 0.00 in 330 W/m2
13:54 44.8 °F 31 °F 29.50 in West 3.6 mph 16 mph 58% 0.00 in 199 W/m2
13:59 45 °F 30.9 °F 29.50 in WSW 4.3 mph 23 mph 57.5% 0.00 in 297 W/m2
14:04 45 °F 31.1 °F 29.50 in West 2.9 mph 23 mph 57.8% 0.00 in 253 W/m2
14:09 45.2 °F 31.3 °F 29.51 in WSW 3.1 mph 13 mph 58% 0.00 in 316 W/m2
14:14 45.3 °F 31.3 °F 29.51 in WSW 2.1 mph 13 mph 57.9% 0.00 in 469 W/m2
14:19 45.3 °F 31.1 °F 29.51 in WSW 3.2 mph 18 mph 57.4% 0.00 in 469 W/m2
14:24 44.9 °F 30.6 °F 29.51 in SW 1.4 mph 18 mph 57% 0.00 in 139 W/m2
14:29 44.6 °F 30.6 °F 29.51 in West 3.2 mph 18 mph 57.6% 0.00 in 221 W/m2
14:34 44.6 °F 30.6 °F 29.52 in WSW 3.7 mph 18 mph 57.6% 0.00 in 221 W/m2
14:39 44.6 °F 30.7 °F 29.52 in WSW 3 mph 15 mph 58% 0.00 in 176 W/m2
14:44 44.4 °F 30.3 °F 29.52 in WSW 1.5 mph 15 mph 57.5% 0.00 in 132 W/m2
14:49 44.2 °F 30.3 °F 29.52 in SW 4.6 mph 15 mph 57.8% 0.00 in 100 W/m2
14:54 43.9 °F 30 °F 29.52 in WSW 3.7 mph 15 mph 58% 0.00 in 97 W/m2
14:59 43.6 °F 30.5 °F 29.53 in WSW 0.7 mph 15 mph 59.5% 0.00 in 81 W/m2
15:04 43.5 °F 30.6 °F 29.53 in West 0.6 mph 15 mph 60.1% 0.00 in 74 W/m2
15:09 43.4 °F 30.5 °F 29.52 in WSW 2.4 mph 10 mph 60.2% 0.00 in 69 W/m2
15:14 43.2 °F 30.3 °F 29.53 in WSW 3.1 mph 15 mph 60% 0.00 in 77 W/m2
15:19 43.1 °F 30.3 °F 29.53 in West 5.1 mph 15 mph 60.2% 0.00 in 77 W/m2
15:24 43 °F 30.3 °F 29.53 in WSW 1.4 mph 15 mph 60.5% 0.00 in 65 W/m2
15:29 43 °F 30.6 °F 29.53 in WSW 3.4 mph 15 mph 61.3% 0.00 in 72 W/m2
15:34 42.9 °F 30.5 °F 29.53 in West 0.6 mph 15 mph 61.4% 0.00 in 79 W/m2
15:39 43 °F 30.8 °F 29.53 in West 0.5 mph 3 mph 61.8% 0.00 in 77 W/m2
15:44 43.1 °F 30.9 °F 29.54 in WSW 3.1 mph 15 mph 61.7% 0.00 in 72 W/m2
15:49 43.2 °F 30.7 °F 29.54 in WSW 1.7 mph 15 mph 61% 0.00 in 69 W/m2
15:54 43.2 °F 30.6 °F 29.54 in West 3.1 mph 16 mph 60.8% 0.00 in 60 W/m2
15:59 43.2 °F 30.7 °F 29.55 in West 1 mph 16 mph 61.1% 0.00 in 62 W/m2
16:09 43.3 °F 31.1 °F 29.55 in West 2.2 mph 12 mph 61.9% 0.00 in 42 W/m2
16:14 43.2 °F 30.7 °F 29.55 in SW 1.1 mph 12 mph 61.1% 0.00 in 30 W/m2
16:18 43 °F 30.6 °F 29.55 in WSW 1.3 mph 12 mph 61.2% 0.00 in 21 W/m2
16:24 42.8 °F 30.4 °F 29.56 in WSW 1.8 mph 12 mph 61.3% 0.00 in 14 W/m2
16:29 42.5 °F 30.4 °F 29.56 in WSW 1 mph 12 mph 61.8% 0.00 in 12 W/m2
16:34 42.3 °F 30.3 °F 29.56 in WSW 1.6 mph 12 mph 62.1% 0.00 in 7 W/m2
16:39 42 °F 30.1 °F 29.56 in WSW 2.7 mph 14 mph 62.5% 0.00 in 5 W/m2
16:44 41.8 °F 30.1 °F 29.56 in WSW 0.8 mph 14 mph 63% 0.00 in 0 W/m2
16:49 41.6 °F 30.3 °F 29.56 in WSW 1.8 mph 14 mph 63.9% 0.00 in 0 W/m2
16:54 41.3 °F 30.1 °F 29.57 in SW 1.3 mph 14 mph 64% 0.00 in 0 W/m2
16:59 41.1 °F 29.9 °F 29.57 in WSW 1.7 mph 14 mph 64.1% 0.00 in 0 W/m2
17:04 41 °F 30.1 °F 29.57 in SW 1.4 mph 14 mph 65% 0.00 in 0 W/m2
17:09 40.8 °F 30 °F 29.57 in WSW 0.7 mph 11 mph 65% 0.00 in 0 W/m2
17:14 40.7 °F 30.3 °F 29.58 in WSW 1.6 mph 11 mph 66.3% 0.00 in 0 W/m2
17:19 40.6 °F 30.7 °F 29.58 in SW 1 mph 11 mph 67.5% 0.00 in 0 W/m2
17:24 40.6 °F 30.5 °F 29.58 in SW 1.4 mph 11 mph 67% 0.00 in 0 W/m2
17:29 40.6 °F 30.7 °F 29.58 in SW 1.4 mph 11 mph 67.3% 0.00 in 0 W/m2
17:34 40.7 °F 30.7 °F 29.58 in WSW 1 mph 11 mph 67.2% 0.00 in 0 W/m2
17:39 40.7 °F 30.6 °F 29.58 in SW 0.8 mph 7 mph 66.9% 0.00 in 0 W/m2
17:44 40.8 °F 30.6 °F 29.58 in WSW 0.9 mph 7 mph 66.6% 0.00 in 0 W/m2
17:49 40.9 °F 30.4 °F 29.59 in SW 0.8 mph 7 mph 66% 0.00 in 0 W/m2
17:54 41 °F 30.5 °F 29.59 in WSW 0.5 mph 7 mph 66% 0.00 in 0 W/m2
17:59 41 °F 30.6 °F 29.59 in SW 1.3 mph 7 mph 66.1% 0.00 in 0 W/m2
18:03 41 °F 30.9 °F 29.59 in SW 2 mph 7 mph 66.8% 0.00 in 0 W/m2
18:09 41.2 °F 30.5 °F 29.59 in SW 0.9 mph 7 mph 65.5% 0.00 in 0 W/m2
18:14 41.3 °F 30.4 °F 29.59 in SW 1 mph 7 mph 65% 0.00 in 0 W/m2
18:19 41.3 °F 30.4 °F 29.60 in SW 2.2 mph 11 mph 64.9% 0.00 in 0 W/m2
18:24 41.3 °F 30.3 °F 29.60 in SW 2.1 mph 11 mph 64.4% 0.00 in 0 W/m2
18:29 41.4 °F 30.4 °F 29.60 in SW 0.8 mph 11 mph 64.7% 0.00 in 0 W/m2
18:34 41.4 °F 30.5 °F 29.60 in WSW 0.4 mph 11 mph 64.9% 0.00 in 0 W/m2
18:39 41.4 °F 30.3 °F 29.60 in WSW 0.6 mph 6 mph 64.5% 0.00 in 0 W/m2
18:44 41.3 °F 30.4 °F 29.60 in WSW 0.3 mph 6 mph 64.7% 0.00 in 0 W/m2
18:49 41.3 °F 30.4 °F 29.61 in WSW 0.7 mph 6 mph 64.8% 0.00 in 0 W/m2
18:54 41.3 °F 30.1 °F 29.61 in WSW 0.2 mph 6 mph 64.2% 0.00 in 0 W/m2
18:59 41.4 °F 30.1 °F 29.61 in SW 2.1 mph 9 mph 64% 0.00 in 0 W/m2
19:04 41.4 °F 30.2 °F 29.61 in WSW 0.4 mph 9 mph 64% 0.00 in 0 W/m2
19:09 41.5 °F 30.2 °F 29.61 in WSW 0.2 mph 3 mph 64% 0.00 in 0 W/m2
19:14 41.5 °F 30 °F 29.61 in WSW 0.5 mph 3 mph 63.4% 0.00 in 0 W/m2
19:19 41.5 °F 30.2 °F 29.61 in SW 0.2 mph 3 mph 64% 0.00 in 0 W/m2
19:24 41.5 °F 30.2 °F 29.61 in Calm   3 mph 64% 0.00 in 0 W/m2
19:29 41.4 °F 30.2 °F 29.61 in SW 0.4 mph 3 mph 64% 0.00 in 0 W/m2
19:34 41.4 °F 30.2 °F 29.62 in WSW 0.4 mph 3 mph 64% 0.00 in 0 W/m2
19:39 41.5 °F 30.2 °F 29.62 in WSW 1.3 mph 12 mph 64% 0.00 in 0 W/m2
19:44 41.5 °F 30.1 °F 29.62 in WSW 1 mph 12 mph 63.7% 0.00 in 0 W/m2
19:49 41.6 °F 30.3 °F 29.62 in WSW 1.1 mph 12 mph 64% 0.00 in 0 W/m2
19:54 41.6 °F 30.3 °F 29.62 in SW 0.5 mph 12 mph 64% 0.00 in 0 W/m2
19:59 41.6 °F 30.3 °F 29.62 in SW 0.9 mph 12 mph 63.9% 0.00 in 0 W/m2
20:00 41.6 °F 30 °F 29.62 in Calm   12 mph 63% 0.00 in 0 W/m2
20:09 41.7 °F 30.1 °F 29.63 in SW 0.3 mph 2 mph 63.2% 0.00 in 0 W/m2
20:14 41.7 °F 30.3 °F 29.63 in SW 1 mph 3 mph 63.5% 0.00 in 0 W/m2
20:19 41.8 °F 30.3 °F 29.63 in SW 0.4 mph 3 mph 63.5% 0.00 in 0 W/m2
20:24 41.8 °F 30.4 °F 29.63 in SW 0.6 mph 4 mph 63.7% 0.00 in 0 W/m2
20:29 41.8 °F 30.3 °F 29.63 in SW 0.6 mph 4 mph 63.4% 0.00 in 0 W/m2
20:34 41.7 °F 30.1 °F 29.63 in SW 1.1 mph 4 mph 63% 0.00 in 0 W/m2
20:39 41.7 °F 30.1 °F 29.63 in SW 1.1 mph 5 mph 63% 0.00 in 0 W/m2
20:44 41.7 °F 30.3 °F 29.63 in SW 1.1 mph 5 mph 63.7% 0.00 in 0 W/m2
20:49 41.7 °F 30.2 °F 29.63 in SW 2.5 mph 7 mph 63.4% 0.00 in 0 W/m2
20:54 41.7 °F 30.4 °F 29.63 in SW 1.2 mph 7 mph 64% 0.00 in 0 W/m2
20:59 41.7 °F 30.4 °F 29.63 in SW 1.2 mph 7 mph 64% 0.00 in 0 W/m2
21:04 41.7 °F 30.4 °F 29.63 in SW 1 mph 6 mph 64% 0.00 in 0 W/m2
21:09 41.6 °F 30.3 °F 29.63 in SW 2.1 mph 6 mph 64% 0.00 in 0 W/m2
21:14 41.5 °F 30.3 °F 29.63 in WSW 1 mph 6 mph 64% 0.00 in 0 W/m2
21:19 41.5 °F 30.5 °F 29.63 in SW 1.8 mph 7 mph 64.8% 0.00 in 0 W/m2
21:24 41.4 °F 30.5 °F 29.63 in WSW 2.1 mph 7 mph 65% 0.00 in 0 W/m2
21:29 41.2 °F 30.3 °F 29.63 in SW 3.8 mph 7 mph 65% 0.00 in 0 W/m2
21:34 41 °F 30.2 °F 29.63 in SW 2.3 mph 7 mph 65% 0.00 in 0 W/m2
21:39 41 °F 30.2 °F 29.63 in SW 1 mph 7 mph 65% 0.00 in 0 W/m2
21:44 41 °F 30.4 °F 29.63 in SW 2.1 mph 11 mph 65.7% 0.00 in 0 W/m2
21:49 41 °F 30.3 °F 29.62 in SW 1 mph 11 mph 65.4% 0.00 in 0 W/m2
21:54 41.1 °F 30.5 °F 29.63 in SW 1.3 mph 11 mph 65.6% 0.00 in 0 W/m2
21:59 41.1 °F 30.4 °F 29.63 in SW 1.8 mph 11 mph 65.5% 0.00 in 0 W/m2
22:04 41.1 °F 30.3 °F 29.62 in SW 1.7 mph 11 mph 65% 0.00 in 0 W/m2
22:09 41.1 °F 30.3 °F 29.62 in SW 1.1 mph 7 mph 65% 0.00 in 0 W/m2
22:13 41.1 °F 30.3 °F 29.62 in SW 1.5 mph 7 mph 65% 0.00 in 0 W/m2
22:19 41.1 °F 30.3 °F 29.62 in SW 1.4 mph 7 mph 65% 0.00 in 0 W/m2
22:24 41.1 °F 30.3 °F 29.62 in SW 0.6 mph 7 mph 65.2% 0.00 in 0 W/m2
22:29 41 °F 30.2 °F 29.62 in SW 0.7 mph 9 mph 65% 0.00 in 0 W/m2
22:34 40.9 °F 30.1 °F 29.62 in SW 0.5 mph 9 mph 65.2% 0.00 in 0 W/m2
22:39 40.8 °F 30.3 °F 29.62 in SW 0.5 mph 3 mph 66% 0.00 in 0 W/m2
22:44 40.7 °F 30.2 °F 29.62 in SW 0.6 mph 3 mph 65.9% 0.00 in 0 W/m2
22:49 40.6 °F 30 °F 29.62 in SW 0.9 mph 3 mph 65.4% 0.00 in 0 W/m2
22:54 40.6 °F 30.1 °F 29.63 in SW 1.9 mph 9 mph 65.7% 0.00 in 0 W/m2
22:59 40.7 °F 29.9 °F 29.63 in SW 0.8 mph 9 mph 65% 0.00 in 0 W/m2
23:04 40.8 °F 30 °F 29.63 in WSW 3 mph 3 mph 65% 0.00 in 0 W/m2
23:09 40.8 °F 30.2 °F 29.63 in SW 1.2 mph 5 mph 65.5% 0.00 in 0 W/m2
23:14 40.8 °F 30 °F 29.63 in SW 1.2 mph 5 mph 65.3% 0.00 in 0 W/m2
23:19 40.8 °F 29.9 °F 29.62 in SW 1.5 mph 5 mph 65% 0.00 in 0 W/m2
23:24 40.8 °F 30 °F 29.62 in SW 2.3 mph 7 mph 65% 0.00 in 0 W/m2
23:29 40.8 °F 30 °F 29.62 in SW 2.4 mph 7 mph 65% 0.00 in 0 W/m2
23:34 40.8 °F 30 °F 29.62 in SW 0.8 mph 7 mph 65% 0.00 in 0 W/m2
23:39 40.8 °F 30 °F 29.62 in SW 2 mph 8 mph 65% 0.00 in 0 W/m2
23:44 40.8 °F 30 °F 29.62 in SW 1.2 mph 8 mph 65% 0.00 in 0 W/m2
23:49 40.8 °F 30 °F 29.62 in SW 2.1 mph 9 mph 65% 0.00 in 0 W/m2
23:54 40.8 °F 30 °F 29.62 in SW 1.7 mph 9 mph 65% 0.00 in 0 W/m2
23:59 40.8 °F 30 °F 29.62 in SW 1.5 mph 9 mph 65% 0.00 in 0 W/m2
Hartford County Weather
Compliments of Weather Underground - 2 mb